createdAt,value
2017-10-23T00:00:51.245Z,8.83
2017-10-23T00:03:17.315Z,8.07
2017-10-23T00:05:43.378Z,13.93
2017-10-23T00:08:09.462Z,8.23
2017-10-23T00:10:35.491Z,9.43
2017-10-23T00:13:01.564Z,7.30
2017-10-23T00:15:27.850Z,8.00
2017-10-23T00:17:53.888Z,13.40
2017-10-23T00:20:20.023Z,14.20
2017-10-23T00:22:46.057Z,17.03
2017-10-23T00:25:12.181Z,12.53
2017-10-23T00:27:38.276Z,8.93
2017-10-23T00:30:04.366Z,21.20
2017-10-23T00:32:30.469Z,9.07
2017-10-23T00:34:56.554Z,10.03
2017-10-23T00:37:22.638Z,9.13
2017-10-23T00:39:48.723Z,6.90
2017-10-23T00:42:14.719Z,7.50
2017-10-23T00:44:40.851Z,7.60
2017-10-23T00:47:06.934Z,8.80
2017-10-23T00:49:32.994Z,12.83
2017-10-23T00:51:59.102Z,8.93
2017-10-23T00:54:25.119Z,12.23
2017-10-23T00:56:51.154Z,7.10
2017-10-23T00:59:17.210Z,12.03
2017-10-23T01:01:43.320Z,8.97
2017-10-23T01:04:09.419Z,12.03
2017-10-23T01:06:35.518Z,7.20
2017-10-23T01:09:01.559Z,9.47
2017-10-23T01:11:27.658Z,9.77
2017-10-23T01:13:53.777Z,7.20
2017-10-23T01:16:19.933Z,13.43
2017-10-23T01:18:45.983Z,13.13
2017-10-23T01:21:12.051Z,6.30
2017-10-23T01:23:38.174Z,9.20
2017-10-23T01:26:04.220Z,8.10
2017-10-23T01:28:30.298Z,9.97
2017-10-23T01:30:56.344Z,9.30
2017-10-23T01:33:22.394Z,6.73
2017-10-23T01:35:48.494Z,8.97
2017-10-23T01:38:14.490Z,8.70
2017-10-23T01:40:40.540Z,10.90
2017-10-23T01:43:06.606Z,7.67
2017-10-23T01:45:32.631Z,12.43
2017-10-23T01:47:58.722Z,9.33
2017-10-23T01:50:24.772Z,6.20
2017-10-23T01:52:50.954Z,6.10
2017-10-23T01:55:17.014Z,8.53
2017-10-23T01:57:43.079Z,6.73
2017-10-23T02:00:09.101Z,7.63
2017-10-23T02:02:35.185Z,8.20
2017-10-23T02:05:01.315Z,7.67
2017-10-23T02:07:27.383Z,5.63
2017-10-23T02:09:53.482Z,8.63
2017-10-23T02:12:19.531Z,6.60
2017-10-23T02:14:45.588Z,7.33
2017-10-23T02:17:11.716Z,7.40
2017-10-23T02:19:37.751Z,7.70
2017-10-23T02:22:03.862Z,8.80
2017-10-23T02:24:29.966Z,5.43
2017-10-23T02:26:56.061Z,11.10
2017-10-23T02:29:22.143Z,7.73
2017-10-23T02:31:48.162Z,7.83
2017-10-23T02:34:14.251Z,6.57
2017-10-23T02:36:40.327Z,14.03
2017-10-23T02:39:06.430Z,7.97
2017-10-23T02:41:32.555Z,7.10
2017-10-23T02:43:58.618Z,10.27
2017-10-23T02:46:24.687Z,8.23
2017-10-23T02:48:50.877Z,11.77
2017-10-23T02:51:16.964Z,5.97
2017-10-23T02:53:43.127Z,7.27
2017-10-23T02:56:09.199Z,9.57
2017-10-23T02:58:35.252Z,4.53
2017-10-23T03:01:01.366Z,6.70
2017-10-23T03:03:27.466Z,10.60
2017-10-23T03:05:53.535Z,8.60
2017-10-23T03:08:19.547Z,5.77
2017-10-23T03:10:45.595Z,4.90
2017-10-23T03:13:11.754Z,7.63
2017-10-23T03:15:37.786Z,10.73
2017-10-23T03:18:03.855Z,6.60
2017-10-23T03:20:29.939Z,4.87
2017-10-23T03:22:55.988Z,7.47
2017-10-23T03:25:22.086Z,6.50
2017-10-23T03:27:48.133Z,4.17
2017-10-23T03:30:14.203Z,5.90
2017-10-23T03:32:40.256Z,9.90
2017-10-23T03:35:06.324Z,9.10
2017-10-23T03:37:32.521Z,7.43
2017-10-23T03:39:58.599Z,8.33
2017-10-23T03:42:24.704Z,8.03
2017-10-23T03:44:50.814Z,5.20
2017-10-23T03:47:16.834Z,6.10
2017-10-23T03:49:42.886Z,7.30
2017-10-23T03:52:08.925Z,6.10
2017-10-23T03:54:34.964Z,6.67
2017-10-23T03:57:01.011Z,8.10
2017-10-23T03:59:27.030Z,8.80
2017-10-23T04:01:53.133Z,6.30
2017-10-23T04:04:19.193Z,12.57
2017-10-23T04:06:45.323Z,7.57
2017-10-23T04:09:11.386Z,11.17
2017-10-23T04:11:37.431Z,7.73
2017-10-23T04:14:03.504Z,8.50
2017-10-23T04:16:29.583Z,9.57
2017-10-23T04:18:55.638Z,12.13
2017-10-23T04:21:22.040Z,9.90
2017-10-23T04:23:48.107Z,5.80
2017-10-23T04:26:14.115Z,6.17
2017-10-23T04:28:40.490Z,7.97
2017-10-23T04:31:06.515Z,4.70
2017-10-23T04:33:32.551Z,6.53
2017-10-23T04:35:58.610Z,11.77
2017-10-23T04:38:24.635Z,4.63
2017-10-23T04:40:51.090Z,7.30
2017-10-23T04:43:17.149Z,9.00
2017-10-23T04:45:43.215Z,7.83
2017-10-23T04:48:09.299Z,9.20
2017-10-23T04:50:35.341Z,7.77
2017-10-23T04:53:01.735Z,8.50
2017-10-23T04:55:27.786Z,11.00
2017-10-23T04:57:53.808Z,9.37
2017-10-23T05:00:19.983Z,11.07
2017-10-23T05:02:46.088Z,14.23
2017-10-23T05:05:12.497Z,6.67
2017-10-23T05:07:38.546Z,9.33
2017-10-23T05:10:04.627Z,5.60
2017-10-23T05:12:30.778Z,10.97
2017-10-23T05:14:56.899Z,5.67
2017-10-23T05:17:23.339Z,13.23
2017-10-23T05:19:49.396Z,8.40
2017-10-23T05:22:15.524Z,8.93
2017-10-23T05:24:41.931Z,5.60
2017-10-23T05:27:07.991Z,5.67
2017-10-23T05:29:34.047Z,5.67
2017-10-23T05:32:00.163Z,5.30
2017-10-23T05:34:26.155Z,7.20
2017-10-23T05:36:52.651Z,6.57
2017-10-23T05:39:18.695Z,8.13
2017-10-23T05:41:44.734Z,12.13
2017-10-23T05:44:10.837Z,6.47
2017-10-23T05:46:36.881Z,9.23
2017-10-23T05:49:03.300Z,10.27
2017-10-23T05:51:29.362Z,10.90
2017-10-23T05:53:55.382Z,6.93
2017-10-23T05:56:21.902Z,8.27
2017-10-23T05:58:47.942Z,6.27
2017-10-23T06:01:14.094Z,11.33
2017-10-23T06:03:40.485Z,6.80
2017-10-23T06:06:06.531Z,6.00
2017-10-23T06:08:32.712Z,13.90
2017-10-23T06:10:58.766Z,11.07
2017-10-23T06:13:24.870Z,7.03
2017-10-23T06:15:51.318Z,11.70
2017-10-23T06:18:17.438Z,8.53
2017-10-23T06:20:43.523Z,13.13
2017-10-23T06:23:09.697Z,7.67
2017-10-23T06:25:35.755Z,8.23
2017-10-23T06:28:02.266Z,6.90
2017-10-23T06:30:28.315Z,18.10
2017-10-23T06:32:54.341Z,7.30
2017-10-23T06:35:20.463Z,10.10
2017-10-23T06:37:46.477Z,7.87
2017-10-23T06:40:12.986Z,5.60
2017-10-23T06:42:39.056Z,9.80
2017-10-23T06:45:05.108Z,7.63
2017-10-23T06:47:31.139Z,7.60
2017-10-23T06:49:57.176Z,12.63
2017-10-23T06:52:23.522Z,6.27
2017-10-23T06:54:49.625Z,10.97
2017-10-23T06:57:15.686Z,10.07
2017-10-23T06:59:42.283Z,6.60
2017-10-23T07:02:08.406Z,10.90
2017-10-23T07:04:34.523Z,9.50
2017-10-23T07:07:01.026Z,9.17
2017-10-23T07:09:27.136Z,7.60
2017-10-23T07:11:53.170Z,6.60
2017-10-23T07:14:19.594Z,7.73
2017-10-23T07:16:45.687Z,8.90
2017-10-23T07:19:11.746Z,8.80
2017-10-23T07:21:38.263Z,7.60
2017-10-23T07:24:04.314Z,13.03
2017-10-23T07:26:30.426Z,12.53
2017-10-23T07:28:56.871Z,5.67
2017-10-23T07:31:22.935Z,12.67
2017-10-23T07:33:49.042Z,6.70
2017-10-23T07:36:15.531Z,7.87
2017-10-23T07:38:41.615Z,6.93
2017-10-23T07:41:08.343Z,7.90
2017-10-23T07:43:34.544Z,6.27
2017-10-23T07:46:00.631Z,4.33
2017-10-23T07:48:27.138Z,13.77
2017-10-23T07:50:53.222Z,7.53
2017-10-23T07:53:19.302Z,10.00
2017-10-23T07:55:45.812Z,4.53
2017-10-23T07:58:11.923Z,8.33
2017-10-23T08:00:38.003Z,5.67
2017-10-23T08:03:11.579Z,11.07
2017-10-23T08:05:37.667Z,5.40
2017-10-23T08:08:03.701Z,4.87
2017-10-23T08:10:29.799Z,5.13
2017-10-23T08:12:55.858Z,6.20
2017-10-23T08:15:22.315Z,12.67
2017-10-23T08:17:48.478Z,6.33
2017-10-23T08:20:14.615Z,6.67
2017-10-23T08:22:41.114Z,7.00
2017-10-23T08:25:07.178Z,9.57
2017-10-23T08:27:33.254Z,7.37
2017-10-23T08:29:59.338Z,5.13
2017-10-23T08:32:25.468Z,6.80
2017-10-23T08:34:51.973Z,5.53
2017-10-23T08:37:18.127Z,5.43
2017-10-23T08:39:44.202Z,5.53
2017-10-23T08:42:10.317Z,7.00
2017-10-23T08:44:36.408Z,5.40
2017-10-23T08:47:02.895Z,5.83
2017-10-23T08:49:29.011Z,6.47
2017-10-23T08:51:55.083Z,7.93
2017-10-23T08:54:21.154Z,7.03
2017-10-23T08:56:47.219Z,7.47
2017-10-23T08:59:13.652Z,4.03
2017-10-23T09:01:39.748Z,5.20
2017-10-23T09:04:05.819Z,6.37
2017-10-23T09:06:32.233Z,5.03
2017-10-23T09:08:58.339Z,6.90
2017-10-23T09:11:24.374Z,8.47
2017-10-23T09:13:50.529Z,5.90
2017-10-23T09:16:16.626Z,4.37
2017-10-23T09:18:43.044Z,5.43
2017-10-23T09:21:09.209Z,8.10
2017-10-23T09:23:35.370Z,5.70
2017-10-23T09:26:01.858Z,6.40
2017-10-23T09:28:27.990Z,5.80
2017-10-23T09:30:54.095Z,5.53
2017-10-23T09:33:20.130Z,6.10
2017-10-23T09:35:46.173Z,6.40
2017-10-23T09:38:12.710Z,4.27
2017-10-23T09:40:38.810Z,6.10
2017-10-23T09:43:04.883Z,5.60
2017-10-23T09:45:31.271Z,4.37
2017-10-23T09:47:57.374Z,7.03
2017-10-23T09:50:23.461Z,6.80
2017-10-23T09:52:49.570Z,7.40
2017-10-23T09:55:15.639Z,5.20
2017-10-23T09:57:42.122Z,4.80
2017-10-23T10:00:08.227Z,5.20
2017-10-23T10:02:34.304Z,7.57
2017-10-23T10:05:00.435Z,5.80
2017-10-23T10:07:26.499Z,5.93
2017-10-23T10:09:52.975Z,4.67
2017-10-23T10:12:19.051Z,4.97
2017-10-23T10:14:45.154Z,7.07
2017-10-23T10:17:11.275Z,4.93
2017-10-23T10:19:37.369Z,5.57
2017-10-23T10:22:03.742Z,3.40
2017-10-23T10:24:29.839Z,3.93
2017-10-23T10:26:55.973Z,4.90
2017-10-23T10:29:22.398Z,2.97
2017-10-23T10:31:48.492Z,4.17
2017-10-23T10:34:14.526Z,5.17
2017-10-23T10:39:32.986Z,20.23
2017-10-23T10:41:59.483Z,7.10
2017-10-23T10:44:25.562Z,9.53
2017-10-23T10:46:51.639Z,37.17
2017-10-23T10:49:17.833Z,12.47
2017-10-23T10:51:43.907Z,4.03
2017-10-23T10:54:10.418Z,6.07
2017-10-23T10:56:36.527Z,3.87
2017-10-23T10:59:02.610Z,3.57
2017-10-23T11:01:28.732Z,6.80
2017-10-23T11:03:54.826Z,3.77
2017-10-23T11:06:21.239Z,3.53
2017-10-23T11:08:47.330Z,3.03
2017-10-23T11:11:13.480Z,2.83
2017-10-23T11:13:39.519Z,4.57
2017-10-23T11:16:05.606Z,6.60
2017-10-23T11:18:32.089Z,3.77
2017-10-23T11:20:58.274Z,4.30
2017-10-23T11:23:24.367Z,3.97
2017-10-23T11:25:50.448Z,4.83
2017-10-23T11:28:16.546Z,4.50
2017-10-23T11:30:43.034Z,4.77
2017-10-23T11:33:09.119Z,5.23
2017-10-23T11:35:35.202Z,4.67
2017-10-23T11:38:01.674Z,5.53
2017-10-23T11:40:27.742Z,10.10
2017-10-23T11:42:53.885Z,6.03
2017-10-23T11:45:20.082Z,6.80
2017-10-23T11:47:46.174Z,6.70
2017-10-23T11:50:12.729Z,10.83
2017-10-23T11:52:38.823Z,7.87
2017-10-23T11:55:04.894Z,4.77
2017-10-23T11:57:31.361Z,5.50
2017-10-23T11:59:57.462Z,9.20
2017-10-23T12:02:23.594Z,4.73
2017-10-23T12:04:49.693Z,7.27
2017-10-23T12:07:15.786Z,9.93
2017-10-23T12:09:42.310Z,7.60
2017-10-23T12:12:08.346Z,5.70
2017-10-23T12:14:34.391Z,10.13
2017-10-23T12:17:00.480Z,8.20
2017-10-23T12:19:26.592Z,7.97
2017-10-23T12:21:53.090Z,10.03
2017-10-23T12:24:19.183Z,8.17
2017-10-23T12:26:45.306Z,9.10
2017-10-23T12:29:11.706Z,7.17
2017-10-23T12:31:37.723Z,8.37
2017-10-23T12:34:03.775Z,5.23
2017-10-23T12:36:29.877Z,7.10
2017-10-23T12:38:55.995Z,6.97
2017-10-23T12:41:22.417Z,6.13
2017-10-23T12:43:48.589Z,7.17
2017-10-23T12:46:14.690Z,9.70
2017-10-23T12:48:41.077Z,5.87
2017-10-23T12:51:07.097Z,10.10
2017-10-23T12:53:33.203Z,10.10
2017-10-23T12:55:59.293Z,8.00
2017-10-23T12:58:25.360Z,6.50
2017-10-23T13:00:51.816Z,6.87
2017-10-23T13:03:17.883Z,9.47
2017-10-23T13:05:43.963Z,7.30
2017-10-23T13:08:10.109Z,8.60
2017-10-23T13:10:36.186Z,8.00
2017-10-23T13:13:02.570Z,3.90
2017-10-23T13:15:28.682Z,6.30
2017-10-23T13:17:54.774Z,4.97
2017-10-23T13:20:20.967Z,10.33
2017-10-23T13:22:47.093Z,3.43
2017-10-23T13:25:13.503Z,10.43
2017-10-23T13:27:39.590Z,9.53
2017-10-23T13:30:05.630Z,6.67
2017-10-23T13:32:31.723Z,5.40
2017-10-23T13:34:57.826Z,7.73
2017-10-23T13:37:24.338Z,3.80
2017-10-23T13:39:50.454Z,4.97
2017-10-23T13:42:16.498Z,5.90
2017-10-23T13:44:42.554Z,5.70
2017-10-23T13:47:08.686Z,5.43
2017-10-23T13:49:35.200Z,7.20
2017-10-23T13:52:01.299Z,5.17
2017-10-23T13:54:27.327Z,6.70
2017-10-23T13:56:53.394Z,8.10
2017-10-23T13:59:19.504Z,5.43
2017-10-23T14:01:45.941Z,5.03
2017-10-23T14:04:12.002Z,8.13
2017-10-23T14:06:38.154Z,5.37
2017-10-23T14:09:04.616Z,7.27
2017-10-23T14:11:30.713Z,5.10
2017-10-23T14:13:56.809Z,5.30
2017-10-23T14:16:23.320Z,19.93
2017-10-23T14:18:49.378Z,8.73
2017-10-23T14:21:15.378Z,6.90
2017-10-23T14:23:41.439Z,6.93
2017-10-23T14:26:07.466Z,8.97
2017-10-23T14:28:33.958Z,5.43
2017-10-23T14:30:59.986Z,6.03
2017-10-23T14:33:26.058Z,8.00
2017-10-23T14:35:52.470Z,6.83
2017-10-23T14:38:18.554Z,5.03
2017-10-23T14:40:44.628Z,7.50
2017-10-23T14:43:10.729Z,6.87
2017-10-23T14:45:36.787Z,5.30
2017-10-23T14:48:03.034Z,6.87
2017-10-23T14:50:29.209Z,8.40
2017-10-23T14:52:55.261Z,8.87
2017-10-23T14:55:21.758Z,4.03
2017-10-23T14:57:47.858Z,3.90
2017-10-23T15:00:14.095Z,3.33
2017-10-23T15:02:40.255Z,2.93
2017-10-23T15:05:06.367Z,3.20
2017-10-23T15:07:32.537Z,4.37
2017-10-23T15:09:58.667Z,2.30
2017-10-23T15:12:24.821Z,5.40
2017-10-23T15:14:50.867Z,3.10
2017-10-23T15:17:16.989Z,3.97
2017-10-23T15:19:43.045Z,4.63
2017-10-23T15:22:09.159Z,5.67
2017-10-23T15:24:35.174Z,4.40
2017-10-23T15:27:01.223Z,6.67
2017-10-23T15:29:27.318Z,6.50
2017-10-23T15:31:53.390Z,5.63
2017-10-23T15:34:19.455Z,11.50
2017-10-23T15:36:45.534Z,12.03
2017-10-23T15:39:11.556Z,19.10
2017-10-23T15:41:37.626Z,5.30
2017-10-23T15:44:03.739Z,8.10
2017-10-23T15:46:29.853Z,5.00
2017-10-23T15:48:55.947Z,10.80
2017-10-23T15:51:22.075Z,3.83
2017-10-23T15:53:48.209Z,5.17
2017-10-23T15:56:14.459Z,6.10
2017-10-23T15:58:40.563Z,7.83
2017-10-23T16:01:06.661Z,4.00
2017-10-23T16:03:32.810Z,5.53
2017-10-23T16:05:58.943Z,6.80
2017-10-23T16:08:24.985Z,4.33
2017-10-23T16:10:51.134Z,4.33
2017-10-23T16:13:17.211Z,5.53
2017-10-23T16:15:43.268Z,4.73
2017-10-23T16:18:09.378Z,5.97
2017-10-23T16:20:35.479Z,5.80
2017-10-23T16:23:01.613Z,5.50
2017-10-23T16:25:27.655Z,5.73
2017-10-23T16:27:53.772Z,5.27
2017-10-23T16:30:20.855Z,5.67
2017-10-23T16:32:46.923Z,7.23
2017-10-23T16:35:13.047Z,10.30
2017-10-23T16:37:39.190Z,6.77
2017-10-23T16:40:05.294Z,10.53
2017-10-23T16:42:31.412Z,8.37
2017-10-23T16:44:57.507Z,3.90
2017-10-23T16:47:23.617Z,14.60
2017-10-23T16:49:49.748Z,7.53
2017-10-23T16:52:15.813Z,5.77
2017-10-23T16:54:41.981Z,9.57
2017-10-23T16:57:08.054Z,5.43
2017-10-23T16:59:34.164Z,5.30
2017-10-23T17:02:00.342Z,9.80
2017-10-23T17:04:26.459Z,7.07
2017-10-23T17:06:52.581Z,10.10
2017-10-23T17:09:18.679Z,7.00
2017-10-23T17:11:44.825Z,6.33
2017-10-23T17:14:10.946Z,4.70
2017-10-23T17:16:37.049Z,9.10
2017-10-23T17:19:03.172Z,13.50
2017-10-23T17:21:29.256Z,13.27
2017-10-23T17:23:55.516Z,15.63
2017-10-23T17:26:21.666Z,13.10
2017-10-23T17:28:47.784Z,17.30
2017-10-23T17:31:13.908Z,11.47
2017-10-23T17:33:40.001Z,16.20
2017-10-23T17:36:06.198Z,12.10
2017-10-23T17:38:32.259Z,8.70
2017-10-23T17:40:58.354Z,8.47
2017-10-23T17:43:24.546Z,7.97
2017-10-23T17:45:50.694Z,6.57
2017-10-23T17:48:16.859Z,7.40
2017-10-23T17:50:42.947Z,9.17
2017-10-23T17:53:09.051Z,7.90
2017-10-23T17:55:35.244Z,6.37
2017-10-23T17:58:01.346Z,5.57
2017-10-23T18:00:27.551Z,6.27
2017-10-23T18:02:53.667Z,8.20
2017-10-23T18:05:19.784Z,8.47
2017-10-23T18:07:45.881Z,6.57
2017-10-23T18:10:12.018Z,7.90
2017-10-23T18:12:38.232Z,7.93
2017-10-23T18:15:04.307Z,7.60
2017-10-23T18:17:30.359Z,8.20
2017-10-23T18:19:56.519Z,9.63
2017-10-23T18:22:22.681Z,9.70
2017-10-23T18:24:48.827Z,9.70
2017-10-23T18:27:15.028Z,7.57
2017-10-23T18:29:41.168Z,10.30
2017-10-23T18:32:07.334Z,7.20
2017-10-23T18:34:33.391Z,7.10
2017-10-23T18:36:59.570Z,12.60
2017-10-23T18:39:25.683Z,10.50
2017-10-23T18:41:51.799Z,25.43
2017-10-23T18:44:17.976Z,34.53
2017-10-23T18:46:44.190Z,27.97
2017-10-23T18:49:10.490Z,15.30
2017-10-23T18:51:36.742Z,12.53
2017-10-23T18:54:03.067Z,13.47
2017-10-23T18:56:29.311Z,12.83
2017-10-23T18:58:55.615Z,10.80
2017-10-23T19:01:21.810Z,16.90
2017-10-23T19:03:47.931Z,15.90
2017-10-23T19:06:14.170Z,11.77
2017-10-23T19:08:40.413Z,13.63
2017-10-23T19:11:07.532Z,13.20
2017-10-23T19:13:33.851Z,14.27
2017-10-23T19:16:00.233Z,12.70
2017-10-23T19:18:27.215Z,12.70
2017-10-23T19:20:53.554Z,12.30
2017-10-23T19:23:19.904Z,10.07
2017-10-23T19:25:46.191Z,13.23
2017-10-23T19:28:12.438Z,10.17
2017-10-23T19:30:38.762Z,10.83
2017-10-23T19:33:05.024Z,11.80
2017-10-23T19:35:31.292Z,10.10
2017-10-23T19:37:57.524Z,10.73
2017-10-23T19:40:23.770Z,10.83
2017-10-23T19:42:50.030Z,12.50
2017-10-23T19:45:16.274Z,11.37
2017-10-23T19:47:42.470Z,10.33
2017-10-23T19:50:08.589Z,13.37
2017-10-23T19:52:34.849Z,12.10
2017-10-23T19:55:01.009Z,10.57
2017-10-23T19:57:27.236Z,9.60
2017-10-23T19:59:53.359Z,11.00
2017-10-23T20:02:19.586Z,12.33
2017-10-23T20:04:45.738Z,12.70
2017-10-23T20:07:11.885Z,11.57
2017-10-23T20:09:38.043Z,11.93
2017-10-23T20:12:04.270Z,13.43
2017-10-23T20:14:30.444Z,14.30
2017-10-23T20:16:56.670Z,16.80
2017-10-23T20:19:22.795Z,10.97
2017-10-23T20:21:48.922Z,14.50
2017-10-23T20:24:15.046Z,11.43
2017-10-23T20:26:41.218Z,14.87
2017-10-23T20:29:07.322Z,15.73
2017-10-23T20:31:33.403Z,14.03
2017-10-23T20:33:59.502Z,14.50
2017-10-23T20:36:25.620Z,18.97
2017-10-23T20:38:51.743Z,15.73
2017-10-23T20:41:17.846Z,17.50
2017-10-23T20:43:43.995Z,17.27
2017-10-23T20:46:10.111Z,16.50
2017-10-23T20:48:36.221Z,18.77
2017-10-23T20:51:02.323Z,16.57
2017-10-23T20:53:28.436Z,12.50
2017-10-23T20:55:54.527Z,16.10
2017-10-23T20:58:20.700Z,17.37
2017-10-23T21:00:46.780Z,18.70
2017-10-23T21:03:13.015Z,15.53
2017-10-23T21:05:39.110Z,15.67
2017-10-23T21:08:05.198Z,16.30
2017-10-23T21:10:32.088Z,13.90
2017-10-23T21:12:58.183Z,16.13
2017-10-23T21:15:24.331Z,14.67
2017-10-23T21:17:50.512Z,16.63
2017-10-23T21:20:16.608Z,15.67
2017-10-23T21:22:42.717Z,15.03
2017-10-23T21:25:08.759Z,17.17
2017-10-23T21:27:34.879Z,17.27
2017-10-23T21:30:00.955Z,14.77
2017-10-23T21:32:27.054Z,16.77
2017-10-23T21:34:53.175Z,16.77
2017-10-23T21:37:19.550Z,17.40
2017-10-23T21:39:45.623Z,18.13
2017-10-23T21:42:11.750Z,19.70
2017-10-23T21:44:37.796Z,18.10
2017-10-23T21:47:09.566Z,19.80
2017-10-23T21:49:35.659Z,17.50
2017-10-23T21:52:01.750Z,17.10
2017-10-23T21:54:27.838Z,20.10
2017-10-23T21:56:53.946Z,19.30
2017-10-23T21:59:20.037Z,18.93
2017-10-23T22:01:46.067Z,16.97
2017-10-23T22:04:12.127Z,23.03
2017-10-23T22:06:38.263Z,18.07
2017-10-23T22:09:04.539Z,19.23
2017-10-23T22:11:30.651Z,22.13
2017-10-23T22:13:56.918Z,20.07
2017-10-23T22:16:23.015Z,18.23
2017-10-23T22:18:49.111Z,23.00
2017-10-23T22:21:15.267Z,18.43
2017-10-23T22:23:41.376Z,18.77
2017-10-23T22:26:07.479Z,17.97
2017-10-23T22:28:33.539Z,24.83
2017-10-23T22:30:59.642Z,21.30
2017-10-23T22:33:25.790Z,23.67
2017-10-23T22:35:51.898Z,21.63
2017-10-23T22:38:17.963Z,20.30
2017-10-23T22:40:44.013Z,18.60
2017-10-23T22:43:10.071Z,19.13
2017-10-23T22:45:36.180Z,21.30
2017-10-23T22:48:02.323Z,18.97
2017-10-23T22:50:28.370Z,19.60
2017-10-23T22:52:54.467Z,17.67
2017-10-23T22:55:20.499Z,21.10
2017-10-23T22:57:46.607Z,19.63
2017-10-23T23:00:12.711Z,21.33
2017-10-23T23:02:38.860Z,20.00
2017-10-23T23:05:04.983Z,18.80
2017-10-23T23:07:31.115Z,18.50
2017-10-23T23:09:57.238Z,20.37
2017-10-23T23:12:23.334Z,19.57
2017-10-23T23:14:49.350Z,17.77
2017-10-23T23:17:15.431Z,20.87
2017-10-23T23:19:41.539Z,22.50
2017-10-23T23:22:07.592Z,26.20
2017-10-23T23:24:33.714Z,23.30
2017-10-23T23:26:59.788Z,22.97
2017-10-23T23:29:25.861Z,19.50
2017-10-23T23:31:51.952Z,19.50
2017-10-23T23:34:18.033Z,24.97
2017-10-23T23:36:44.145Z,20.50
2017-10-23T23:39:10.175Z,19.07
2017-10-23T23:41:36.219Z,18.40
2017-10-23T23:44:02.455Z,21.23
2017-10-23T23:46:28.537Z,20.00
2017-10-23T23:48:54.825Z,17.60
2017-10-23T23:51:20.903Z,21.97
2017-10-23T23:53:46.983Z,17.63
2017-10-23T23:56:13.117Z,18.33
2017-10-23T23:58:39.195Z,18.33
